Ellis Grove, Illinois
Current Conditions -  °F | °C
As of 10:55 AM on Saturday 22 Nov 2014 (Local Time) from KSAR Reporting Station
Overcast Overcast  
Wind Chill: 56°   Ceiling: 4800
Heat Index: 56°   Visibility: 10mi
Dew Point: 47°   Wind: 15mph
Humidity: 71%   Direction: 190°S
Pressure: 30.13"   Gusts: 24mph
Location:  38.01°N, 89.91°W
Report Text: KSAR 221655Z AUTO 19013G21KT 10SM SCT042 BKN048 OVC065 13/08 A3013 RMK AO2 LTG DSNT SW T01320081
Loading
Personal Weather Stations






























Interactive Weather Map New forecast layout! Learn more

10-Day Weather Forecast

Advertisements
Track Severe Weather on mobile